createdAt,value
2018-07-03T00:00:40.832Z,26.45
2018-07-03T00:01:40.790Z,26.47
2018-07-03T00:02:40.746Z,26.54
2018-07-03T00:03:40.704Z,26.45
2018-07-03T00:04:40.661Z,26.50
2018-07-03T00:05:40.619Z,26.45
2018-07-03T00:06:40.575Z,26.45
2018-07-03T00:07:40.533Z,26.48
2018-07-03T00:08:40.493Z,26.51
2018-07-03T00:09:40.448Z,26.44
2018-07-03T00:10:40.404Z,26.47
2018-07-03T00:11:40.364Z,26.43
2018-07-03T00:12:40.328Z,26.47
2018-07-03T00:13:40.276Z,26.47
2018-07-03T00:14:40.232Z,26.45
2018-07-03T00:15:40.190Z,26.45
2018-07-03T00:16:40.148Z,26.47
2018-07-03T00:17:40.106Z,26.45
2018-07-03T00:18:40.063Z,26.35
2018-07-03T00:19:40.019Z,26.45
2018-07-03T00:20:39.977Z,26.32
2018-07-03T00:21:40.035Z,26.35
2018-07-03T00:22:39.890Z,26.30
2018-07-03T00:23:39.848Z,26.40
2018-07-03T00:24:39.805Z,26.33
2018-07-03T00:25:39.762Z,26.45
2018-07-03T00:26:39.718Z,26.44
2018-07-03T00:27:39.676Z,26.35
2018-07-03T00:28:39.634Z,26.32
2018-07-03T00:29:39.591Z,26.29
2018-07-03T00:30:39.547Z,26.35
2018-07-03T00:31:39.504Z,26.30
2018-07-03T00:32:39.462Z,26.29
2018-07-03T00:33:39.420Z,26.32
2018-07-03T00:34:39.376Z,26.30
2018-07-03T00:35:39.334Z,26.36
2018-07-03T00:36:39.290Z,26.40
2018-07-03T00:37:39.248Z,26.36
2018-07-03T00:38:39.204Z,26.36
2018-07-03T00:39:39.162Z,26.37
2018-07-03T00:40:39.119Z,26.37
2018-07-03T00:41:39.076Z,26.35
2018-07-03T00:42:39.033Z,26.36
2018-07-03T00:43:38.991Z,26.36
2018-07-03T00:44:38.948Z,26.33
2018-07-03T00:45:38.905Z,26.33
2018-07-03T00:47:38.819Z,26.33
2018-07-03T00:48:38.776Z,26.32
2018-07-03T00:49:38.733Z,26.33
2018-07-03T00:50:38.689Z,26.36
2018-07-03T00:51:38.647Z,26.30
2018-07-03T00:52:38.605Z,26.35
2018-07-03T00:53:38.562Z,26.35
2018-07-03T00:54:38.518Z,26.35
2018-07-03T00:55:38.476Z,26.33
2018-07-03T00:56:38.433Z,26.26
2018-07-03T00:57:38.391Z,26.32
2018-07-03T00:58:38.347Z,26.32
2018-07-03T00:59:38.408Z,26.29
2018-07-03T01:00:38.261Z,26.37
2018-07-03T01:01:38.219Z,26.29
2018-07-03T01:02:38.176Z,26.26
2018-07-03T01:03:38.132Z,26.30
2018-07-03T01:04:38.093Z,26.28
2018-07-03T01:05:38.047Z,26.29
2018-07-03T01:06:38.004Z,26.28
2018-07-03T01:07:37.961Z,26.33
2018-07-03T01:08:37.921Z,26.35
2018-07-03T01:09:37.878Z,26.25
2018-07-03T01:10:37.831Z,26.25
2018-07-03T01:11:37.795Z,26.20
2018-07-03T01:12:37.746Z,26.26
2018-07-03T01:13:37.703Z,26.18
2018-07-03T01:14:37.660Z,26.28
2018-07-03T01:15:37.617Z,26.28
2018-07-03T01:16:37.576Z,26.33
2018-07-03T01:17:37.532Z,26.32
2018-07-03T01:18:37.488Z,26.25
2018-07-03T01:19:37.445Z,26.20
2018-07-03T01:20:37.403Z,26.25
2018-07-03T01:21:37.360Z,26.23
2018-07-03T01:22:37.316Z,26.23
2018-07-03T01:23:37.276Z,26.18
2018-07-03T01:24:37.231Z,26.23
2018-07-03T01:25:37.188Z,26.23
2018-07-03T01:26:37.145Z,26.26
2018-07-03T01:27:37.102Z,26.18
2018-07-03T01:28:37.059Z,26.21
2018-07-03T01:29:37.017Z,26.15
2018-07-03T01:30:36.972Z,26.25
2018-07-03T01:31:36.929Z,26.25
2018-07-03T01:32:36.887Z,26.20
2018-07-03T01:33:36.844Z,26.18
2018-07-03T01:34:36.800Z,26.17
2018-07-03T01:35:36.758Z,26.17
2018-07-03T01:36:36.715Z,26.12
2018-07-03T01:37:36.673Z,26.15
2018-07-03T01:38:36.629Z,26.21
2018-07-03T01:39:36.586Z,26.18
2018-07-03T01:40:36.543Z,26.20
2018-07-03T01:41:36.502Z,26.20
2018-07-03T01:42:36.456Z,26.26
2018-07-03T01:43:36.414Z,26.21
2018-07-03T01:44:36.371Z,26.20
2018-07-03T01:45:36.328Z,26.23
2018-07-03T01:46:36.286Z,26.18
2018-07-03T01:47:36.242Z,26.15
2018-07-03T01:48:36.199Z,26.23
2018-07-03T01:49:36.157Z,26.23
2018-07-03T01:50:36.113Z,26.17
2018-07-03T01:51:36.071Z,26.23
2018-07-03T01:52:36.027Z,26.13
2018-07-03T01:53:35.984Z,26.21
2018-07-03T01:54:35.941Z,26.21
2018-07-03T01:55:35.901Z,26.20
2018-07-03T01:56:35.855Z,26.12
2018-07-03T01:57:35.812Z,26.17
2018-07-03T01:58:35.769Z,26.18
2018-07-03T01:59:35.725Z,26.17
2018-07-03T02:00:35.683Z,26.15
2018-07-03T02:01:35.642Z,26.18
2018-07-03T02:02:35.596Z,26.09
2018-07-03T02:03:35.558Z,26.15
2018-07-03T02:04:35.510Z,26.20
2018-07-03T02:05:35.468Z,26.18
2018-07-03T02:06:35.424Z,26.23
2018-07-03T02:07:35.381Z,26.15
2018-07-03T02:08:35.338Z,26.17
2018-07-03T02:09:35.296Z,26.13
2018-07-03T02:10:35.252Z,26.18
2018-07-03T02:11:35.209Z,26.07
2018-07-03T02:12:35.166Z,26.10
2018-07-03T02:13:35.123Z,26.20
2018-07-03T02:14:35.084Z,26.17
2018-07-03T02:15:35.039Z,26.13
2018-07-03T02:16:34.994Z,26.15
2018-07-03T02:17:34.951Z,26.09
2018-07-03T02:18:34.907Z,26.17
2018-07-03T02:19:34.864Z,26.02
2018-07-03T02:20:34.822Z,26.18
2018-07-03T02:21:34.779Z,26.17
2018-07-03T02:22:34.735Z,26.12
2018-07-03T02:23:34.692Z,26.13
2018-07-03T02:24:34.653Z,26.10
2018-07-03T02:25:34.607Z,26.12
2018-07-03T02:26:34.563Z,26.15
2018-07-03T02:27:34.520Z,26.10
2018-07-03T02:28:34.478Z,26.09
2018-07-03T02:29:34.434Z,26.18
2018-07-03T02:30:34.390Z,26.07
2018-07-03T02:31:34.348Z,26.07
2018-07-03T02:32:34.308Z,26.12
2018-07-03T02:33:34.262Z,26.17
2018-07-03T02:34:34.219Z,26.09
2018-07-03T02:35:34.175Z,26.12
2018-07-03T02:36:34.132Z,26.10
2018-07-03T02:37:34.096Z,26.07
2018-07-03T02:38:34.046Z,26.09
2018-07-03T02:39:34.003Z,26.07
2018-07-03T02:40:33.960Z,26.10
2018-07-03T02:41:33.917Z,26.10
2018-07-03T02:42:33.874Z,26.06
2018-07-03T02:43:33.856Z,26.20
2018-07-03T02:44:33.794Z,26.12
2018-07-03T02:45:33.745Z,26.07
2018-07-03T02:46:33.705Z,26.07
2018-07-03T02:47:33.658Z,26.12
2018-07-03T02:48:33.618Z,26.12
2018-07-03T02:49:33.572Z,26.12
2018-07-03T02:50:33.529Z,26.06
2018-07-03T02:51:33.487Z,26.09
2018-07-03T02:52:33.446Z,26.07
2018-07-03T02:53:33.404Z,26.12
2018-07-03T02:54:33.356Z,26.12
2018-07-03T02:55:33.320Z,26.07
2018-07-03T02:56:33.270Z,26.05
2018-07-03T02:57:33.233Z,26.12
2018-07-03T02:58:33.184Z,26.07
2018-07-03T02:59:33.145Z,26.06
2018-07-03T03:00:33.098Z,26.13
2018-07-03T03:01:33.071Z,26.07
2018-07-03T03:02:33.012Z,26.10
2018-07-03T03:03:32.971Z,26.10
2018-07-03T03:04:32.926Z,26.07
2018-07-03T03:05:32.882Z,26.07
2018-07-03T03:06:32.839Z,26.13
2018-07-03T03:07:32.796Z,26.05
2018-07-03T03:08:32.757Z,26.10
2018-07-03T03:09:32.710Z,26.09
2018-07-03T03:10:32.668Z,26.10
2018-07-03T03:11:32.623Z,26.07
2018-07-03T03:12:32.581Z,26.13
2018-07-03T03:13:32.542Z,26.06
2018-07-03T03:14:32.495Z,26.07
2018-07-03T03:15:32.452Z,26.13
2018-07-03T03:16:32.408Z,26.10
2018-07-03T03:17:32.365Z,26.02
2018-07-03T03:18:32.321Z,25.98
2018-07-03T03:19:32.278Z,26.07
2018-07-03T03:20:32.239Z,26.09
2018-07-03T03:21:32.193Z,26.06
2018-07-03T03:22:32.200Z,25.99
2018-07-03T03:23:32.106Z,25.95
2018-07-03T03:24:32.062Z,26.06
2018-07-03T03:25:32.028Z,26.10
2018-07-03T03:26:31.975Z,26.06
2018-07-03T03:27:31.932Z,25.98
2018-07-03T03:28:31.889Z,26.01
2018-07-03T03:29:31.849Z,26.06
2018-07-03T03:30:31.802Z,26.06
2018-07-03T03:31:31.760Z,26.07
2018-07-03T03:32:31.717Z,25.97
2018-07-03T03:33:31.674Z,26.05
2018-07-03T03:34:31.632Z,26.06
2018-07-03T03:35:31.587Z,25.95
2018-07-03T03:36:31.546Z,26.10
2018-07-03T03:37:31.502Z,25.98
2018-07-03T03:38:31.457Z,25.99
2018-07-03T03:39:31.413Z,26.07
2018-07-03T03:40:31.371Z,26.07
2018-07-03T03:41:31.328Z,25.98
2018-07-03T03:42:31.284Z,26.07
2018-07-03T03:43:31.242Z,26.12
2018-07-03T03:44:31.197Z,25.97
2018-07-03T03:45:31.154Z,26.06
2018-07-03T03:46:31.111Z,25.97
2018-07-03T03:47:31.118Z,26.01
2018-07-03T03:48:31.025Z,26.06
2018-07-03T03:49:30.982Z,25.99
2018-07-03T03:50:30.938Z,26.07
2018-07-03T03:51:30.896Z,25.98
2018-07-03T03:52:30.852Z,26.10
2018-07-03T03:53:30.813Z,26.07
2018-07-03T03:54:30.766Z,26.07
2018-07-03T03:55:30.723Z,26.07
2018-07-03T03:56:30.679Z,26.05
2018-07-03T03:57:30.637Z,26.01
2018-07-03T03:58:30.592Z,25.95
2018-07-03T03:59:30.549Z,26.05
2018-07-03T04:00:30.507Z,26.12
2018-07-03T04:01:30.463Z,26.06
2018-07-03T04:02:30.420Z,26.06
2018-07-03T04:03:30.378Z,26.07
2018-07-03T04:04:30.333Z,25.99
2018-07-03T04:05:30.290Z,25.99
2018-07-03T04:06:30.248Z,26.01
2018-07-03T04:07:30.203Z,26.02
2018-07-03T04:08:30.161Z,26.05
2018-07-03T04:09:30.117Z,26.06
2018-07-03T04:10:30.074Z,26.09
2018-07-03T04:11:30.031Z,26.07
2018-07-03T04:12:29.987Z,25.97
2018-07-03T04:13:29.944Z,26.01
2018-07-03T04:14:29.900Z,26.05
2018-07-03T04:15:29.861Z,25.98
2018-07-03T04:16:29.864Z,25.99
2018-07-03T04:17:29.771Z,25.97
2018-07-03T04:18:29.730Z,26.02
2018-07-03T04:19:29.684Z,25.97
2018-07-03T04:20:29.641Z,26.06
2018-07-03T04:21:29.598Z,25.98
2018-07-03T04:22:29.554Z,26.06
2018-07-03T04:23:29.513Z,25.97
2018-07-03T04:24:29.467Z,25.97
2018-07-03T04:25:29.425Z,25.95
2018-07-03T04:26:29.380Z,26.07
2018-07-03T04:27:29.338Z,25.97
2018-07-03T04:28:29.295Z,26.07
2018-07-03T04:29:29.251Z,25.98
2018-07-03T04:30:29.214Z,26.05
2018-07-03T04:31:29.164Z,25.95
2018-07-03T04:32:29.121Z,25.97
2018-07-03T04:33:29.078Z,25.98
2018-07-03T04:34:29.034Z,25.98
2018-07-03T04:35:28.991Z,25.99
2018-07-03T04:36:28.951Z,25.97
2018-07-03T04:37:28.905Z,26.01
2018-07-03T04:38:28.861Z,26.10
2018-07-03T04:39:28.820Z,26.12
2018-07-03T04:40:28.775Z,26.13
2018-07-03T04:41:28.745Z,26.25
2018-07-03T04:42:28.688Z,26.25
2018-07-03T04:43:28.645Z,26.30
2018-07-03T04:44:28.602Z,26.45
2018-07-03T04:45:28.561Z,26.50
2018-07-03T04:46:28.514Z,26.62
2018-07-03T04:47:28.472Z,26.72
2018-07-03T04:48:28.429Z,26.76
2018-07-03T04:49:28.386Z,26.77
2018-07-03T04:50:28.341Z,26.85
2018-07-03T04:51:28.299Z,26.89
2018-07-03T04:52:28.256Z,26.95
2018-07-03T04:53:28.227Z,27.02
2018-07-03T04:54:28.168Z,27.12
2018-07-03T04:55:28.126Z,27.25
2018-07-03T04:56:28.083Z,27.27
2018-07-03T04:57:28.040Z,27.27
2018-07-03T04:58:27.998Z,27.37
2018-07-03T04:59:27.953Z,27.46
2018-07-03T05:00:27.910Z,27.49
2018-07-03T05:01:27.866Z,27.57
2018-07-03T05:02:27.823Z,27.60
2018-07-03T05:03:27.780Z,27.66
2018-07-03T05:04:27.738Z,27.79
2018-07-03T05:05:27.695Z,27.75
2018-07-03T05:06:27.651Z,27.78
2018-07-03T05:07:27.608Z,27.87
2018-07-03T05:08:27.565Z,27.94
2018-07-03T05:09:27.523Z,27.88
2018-07-03T05:10:27.481Z,27.99
2018-07-03T05:11:27.436Z,27.97
2018-07-03T05:12:27.393Z,28.09
2018-07-03T05:13:27.351Z,28.06
2018-07-03T05:14:27.316Z,28.12
2018-07-03T05:15:27.264Z,28.12
2018-07-03T05:16:27.223Z,28.22
2018-07-03T05:17:27.197Z,28.24
2018-07-03T05:18:27.136Z,28.30
2018-07-03T05:19:27.092Z,28.30
2018-07-03T05:20:27.053Z,28.33
2018-07-03T05:21:27.006Z,28.30
2018-07-03T05:22:26.964Z,28.40
2018-07-03T05:23:26.920Z,28.41
2018-07-03T05:24:26.878Z,28.39
2018-07-03T05:25:26.837Z,28.55
2018-07-03T05:26:26.797Z,28.49
2018-07-03T05:27:26.749Z,28.51
2018-07-03T05:28:26.707Z,28.56
2018-07-03T05:29:26.666Z,28.56
2018-07-03T05:30:26.621Z,28.67
2018-07-03T05:31:26.599Z,28.73
2018-07-03T05:32:26.537Z,28.70
2018-07-03T05:33:26.493Z,28.71
2018-07-03T05:34:26.451Z,28.81
2018-07-03T05:35:26.407Z,28.80
2018-07-03T05:36:26.364Z,28.81
2018-07-03T05:37:26.322Z,28.92
2018-07-03T05:38:26.329Z,28.80
2018-07-03T05:39:26.236Z,28.80
2018-07-03T05:40:26.196Z,28.90
2018-07-03T05:41:26.151Z,29.04
2018-07-03T05:42:26.108Z,28.98
2018-07-03T05:43:26.066Z,28.96
2018-07-03T05:44:26.023Z,28.96
2018-07-03T05:45:25.980Z,28.96
2018-07-03T05:46:25.937Z,29.00
2018-07-03T05:47:25.895Z,28.96
2018-07-03T05:48:25.852Z,29.00
2018-07-03T05:49:25.810Z,29.05
2018-07-03T05:50:25.767Z,29.18
2018-07-03T05:51:25.725Z,29.19
2018-07-03T05:52:25.682Z,29.18
2018-07-03T05:53:25.641Z,29.16
2018-07-03T05:54:25.597Z,29.19
2018-07-03T05:55:25.558Z,29.23
2018-07-03T05:57:25.470Z,29.33
2018-07-03T05:58:25.426Z,29.34
2018-07-03T05:59:25.406Z,29.34
2018-07-03T06:00:25.342Z,29.41
2018-07-03T06:01:25.300Z,29.43
2018-07-03T06:02:25.256Z,29.37
2018-07-03T06:03:25.217Z,29.45
2018-07-03T06:04:25.190Z,29.51
2018-07-03T06:05:25.230Z,29.48
2018-07-03T06:06:25.087Z,29.58
2018-07-03T06:07:25.051Z,29.57
2018-07-03T06:08:25.013Z,29.57
2018-07-03T06:09:24.966Z,29.53
2018-07-03T06:10:24.917Z,29.61
2018-07-03T06:11:24.875Z,29.71
2018-07-03T06:12:24.833Z,29.87
2018-07-03T06:13:24.791Z,29.95
2018-07-03T06:14:24.749Z,30.08
2018-07-03T06:15:24.732Z,30.22
2018-07-03T06:16:24.728Z,30.39
2018-07-03T06:17:24.652Z,30.46
2018-07-03T06:18:24.595Z,30.62
2018-07-03T06:19:24.537Z,30.73
2018-07-03T06:20:24.495Z,30.91
2018-07-03T06:21:24.453Z,31.06
2018-07-03T06:22:24.411Z,31.07
2018-07-03T06:23:24.368Z,31.14
2018-07-03T06:24:24.327Z,31.31
2018-07-03T06:25:24.286Z,31.47
2018-07-03T06:26:24.244Z,31.58
2018-07-03T06:27:24.202Z,31.57
2018-07-03T06:28:24.160Z,31.66
2018-07-03T06:29:24.118Z,31.84
2018-07-03T06:30:24.076Z,31.81
2018-07-03T06:31:24.035Z,31.92
2018-07-03T06:32:23.994Z,31.91
2018-07-03T06:33:23.953Z,31.96
2018-07-03T06:34:23.911Z,32.11
2018-07-03T06:35:23.870Z,32.14
2018-07-03T06:36:23.830Z,32.28
2018-07-03T06:37:23.809Z,32.40
2018-07-03T06:38:23.746Z,32.51
2018-07-03T06:39:23.706Z,32.57
2018-07-03T06:40:23.665Z,32.74
2018-07-03T06:41:23.623Z,32.92
2018-07-03T06:42:23.581Z,33.03
2018-07-03T06:43:23.717Z,33.18
2018-07-03T06:44:23.501Z,33.29
2018-07-03T06:45:23.462Z,33.49
2018-07-03T06:46:23.419Z,33.61
2018-07-03T06:47:23.492Z,33.79
2018-07-03T06:48:23.339Z,33.86
2018-07-03T06:49:23.299Z,34.10
2018-07-03T06:50:23.259Z,33.98
2018-07-03T06:51:23.217Z,33.95
2018-07-03T06:52:23.179Z,34.21
2018-07-03T06:53:23.138Z,34.31
2018-07-03T06:54:23.097Z,34.40
2018-07-03T06:55:23.057Z,34.42
2018-07-03T06:56:23.017Z,34.58
2018-07-03T06:57:22.978Z,34.81
2018-07-03T06:58:22.938Z,34.84
2018-07-03T06:59:22.898Z,34.91
2018-07-03T07:00:22.859Z,34.87
2018-07-03T07:01:22.820Z,35.09
2018-07-03T07:02:22.779Z,35.23
2018-07-03T07:03:22.741Z,35.36
2018-07-03T07:04:22.699Z,35.52
2018-07-03T07:05:22.662Z,35.71
2018-07-03T07:06:22.622Z,35.74
2018-07-03T07:07:22.584Z,35.82
2018-07-03T07:08:22.544Z,35.90
2018-07-03T07:09:22.643Z,35.99
2018-07-03T07:10:22.466Z,36.22
2018-07-03T07:11:22.428Z,36.20
2018-07-03T07:12:22.390Z,36.35
2018-07-03T07:13:22.350Z,36.51
2018-07-03T07:14:22.312Z,36.60
2018-07-03T07:15:22.273Z,36.78
2018-07-03T07:16:22.236Z,36.93
2018-07-03T07:17:22.196Z,36.84
2018-07-03T07:18:22.157Z,36.91
2018-07-03T07:19:22.120Z,36.95
2018-07-03T07:20:22.084Z,37.12
2018-07-03T07:21:22.044Z,37.18
2018-07-03T07:22:22.005Z,37.43
2018-07-03T07:23:22.014Z,37.57
2018-07-03T07:24:21.930Z,37.56
2018-07-03T07:25:21.894Z,37.66
2018-07-03T07:26:21.904Z,37.72
2018-07-03T07:27:21.818Z,37.85
2018-07-03T07:28:21.779Z,38.09
2018-07-03T07:29:21.746Z,38.18
2018-07-03T07:30:21.703Z,38.38
2018-07-03T07:31:21.667Z,38.50
2018-07-03T07:32:21.630Z,38.68
2018-07-03T07:33:21.595Z,38.87
2018-07-03T07:34:21.555Z,38.86
2018-07-03T07:35:21.518Z,38.86
2018-07-03T07:36:21.480Z,39.01
2018-07-03T07:37:21.445Z,39.26
2018-07-03T07:38:21.411Z,39.28
2018-07-03T07:39:21.373Z,39.41
2018-07-03T07:40:21.345Z,39.52
2018-07-03T07:41:21.298Z,39.40
2018-07-03T07:42:21.261Z,39.62
2018-07-03T07:43:21.226Z,39.59
2018-07-03T07:44:21.188Z,39.72
2018-07-03T07:45:21.152Z,39.82
2018-07-03T07:46:21.115Z,39.86
2018-07-03T07:47:21.079Z,40.04
2018-07-03T07:48:21.044Z,40.10
2018-07-03T07:49:21.008Z,40.15
2018-07-03T07:50:20.974Z,40.25
2018-07-03T07:51:20.936Z,40.38
2018-07-03T07:52:20.903Z,40.55
2018-07-03T07:53:20.865Z,40.61
2018-07-03T07:54:20.831Z,40.65
2018-07-03T07:55:20.794Z,40.60
2018-07-03T07:56:20.793Z,40.74
2018-07-03T07:57:20.724Z,40.83
2018-07-03T07:58:20.688Z,40.87
2018-07-03T07:59:20.653Z,40.95
2018-07-03T08:00:20.669Z,41.16
2018-07-03T08:01:20.590Z,41.25
2018-07-03T08:02:20.548Z,41.33
2018-07-03T08:03:20.513Z,41.48
2018-07-03T08:04:20.480Z,41.52
2018-07-03T08:05:20.445Z,41.70
2018-07-03T08:06:20.408Z,41.86
2018-07-03T08:07:20.375Z,41.96
2018-07-03T08:08:20.341Z,42.08
2018-07-03T08:09:20.305Z,42.21
2018-07-03T08:10:20.272Z,42.27
2018-07-03T08:11:20.238Z,42.35
2018-07-03T08:12:20.203Z,42.42
2018-07-03T08:13:20.202Z,42.49
2018-07-03T08:14:20.138Z,42.49
2018-07-03T08:15:20.102Z,42.68
2018-07-03T08:16:20.069Z,42.59
2018-07-03T08:17:20.043Z,42.70
2018-07-03T08:18:20.001Z,42.93
2018-07-03T08:19:19.972Z,43.08
2018-07-03T08:20:19.936Z,43.19
2018-07-03T08:21:19.903Z,43.19
2018-07-03T08:22:19.869Z,43.11
2018-07-03T08:23:19.838Z,43.14
2018-07-03T08:24:19.802Z,43.31
2018-07-03T08:25:19.770Z,43.33
2018-07-03T08:26:19.737Z,43.45
2018-07-03T08:27:19.706Z,43.49
2018-07-03T08:28:19.672Z,43.47
2018-07-03T08:29:19.641Z,43.65
2018-07-03T08:30:19.608Z,43.66
2018-07-03T08:31:19.575Z,43.71
2018-07-03T08:32:19.569Z,43.76
2018-07-03T08:33:19.512Z,43.90
2018-07-03T08:34:19.484Z,43.98
2018-07-03T08:35:19.449Z,44.10
2018-07-03T08:36:19.416Z,44.10
2018-07-03T08:37:19.385Z,44.18
2018-07-03T08:38:19.353Z,44.07
2018-07-03T08:39:19.322Z,44.06
2018-07-03T08:40:19.291Z,44.14
2018-07-03T08:41:19.264Z,44.19
2018-07-03T08:42:19.228Z,44.34
2018-07-03T08:43:19.198Z,44.43
2018-07-03T08:44:19.167Z,44.46
2018-07-03T08:45:19.136Z,44.43
2018-07-03T08:46:19.104Z,44.36
2018-07-03T08:47:19.074Z,44.32
2018-07-03T08:48:19.076Z,44.31
2018-07-03T08:49:19.015Z,44.36
2018-07-03T08:50:18.983Z,44.36
2018-07-03T08:51:18.951Z,44.37
2018-07-03T08:52:18.923Z,44.29
2018-07-03T08:53:18.944Z,44.44
2018-07-03T08:54:18.865Z,44.43
2018-07-03T08:55:18.832Z,44.41
2018-07-03T08:56:18.803Z,44.56
2018-07-03T08:57:18.771Z,44.70
2018-07-03T08:58:18.809Z,44.80
2018-07-03T08:59:18.714Z,44.98
2018-07-03T09:00:18.683Z,45.10
2018-07-03T09:01:18.657Z,45.23
2018-07-03T09:02:18.624Z,45.31
2018-07-03T09:03:18.594Z,45.21
2018-07-03T09:04:18.570Z,45.16
2018-07-03T09:05:18.535Z,44.95
2018-07-03T09:06:18.506Z,45.05
2018-07-03T09:07:18.477Z,45.02
2018-07-03T09:08:18.448Z,45.21
2018-07-03T09:09:18.420Z,45.42
2018-07-03T09:10:18.390Z,45.60
2018-07-03T09:11:18.361Z,45.62
2018-07-03T09:12:18.359Z,45.67
2018-07-03T09:13:18.303Z,45.77
2018-07-03T09:14:18.274Z,45.89
2018-07-03T09:15:18.245Z,46.04
2018-07-03T09:16:18.217Z,46.03
2018-07-03T09:17:18.189Z,46.01
2018-07-03T09:18:18.160Z,46.21
2018-07-03T09:19:18.132Z,46.35
2018-07-03T09:20:18.102Z,46.43
2018-07-03T09:21:18.076Z,46.34
2018-07-03T09:22:18.046Z,46.47
2018-07-03T09:23:18.017Z,46.42
2018-07-03T09:24:17.990Z,46.35
2018-07-03T09:25:17.961Z,46.16
2018-07-03T09:26:17.931Z,46.12
2018-07-03T09:27:17.903Z,46.19
2018-07-03T09:28:17.877Z,46.27
2018-07-03T09:29:17.849Z,46.37
2018-07-03T09:30:17.821Z,46.35
2018-07-03T09:31:17.792Z,46.45
2018-07-03T09:32:17.764Z,46.46
2018-07-03T09:33:17.737Z,46.47
2018-07-03T09:34:17.708Z,46.28
2018-07-03T09:35:17.680Z,46.05
2018-07-03T09:36:17.660Z,45.77
2018-07-03T09:37:17.625Z,45.40
2018-07-03T09:38:17.598Z,44.80
2018-07-03T09:39:17.574Z,44.24
2018-07-03T09:40:17.541Z,43.49
2018-07-03T09:41:17.514Z,42.76
2018-07-03T09:42:17.485Z,42.02
2018-07-03T09:43:17.459Z,41.36
2018-07-03T09:44:17.431Z,40.62
2018-07-03T09:45:17.403Z,39.84
2018-07-03T09:46:17.375Z,39.14
2018-07-03T09:47:17.348Z,38.47
2018-07-03T09:48:17.319Z,37.91
2018-07-03T09:49:17.295Z,37.31
2018-07-03T09:50:17.262Z,36.80
2018-07-03T09:51:17.235Z,36.44
2018-07-03T09:52:17.206Z,35.94
2018-07-03T09:53:17.180Z,35.59
2018-07-03T09:54:17.148Z,35.21
2018-07-03T09:55:17.118Z,34.75
2018-07-03T09:56:17.089Z,34.34
2018-07-03T09:57:17.060Z,34.06
2018-07-03T09:58:17.028Z,33.57
2018-07-03T09:59:16.997Z,33.26
2018-07-03T10:00:16.965Z,32.93
2018-07-03T10:01:16.932Z,32.63
2018-07-03T10:02:16.901Z,32.41
2018-07-03T10:03:16.868Z,32.21
2018-07-03T10:04:16.838Z,32.00
2018-07-03T10:05:16.802Z,31.75
2018-07-03T10:06:16.768Z,31.54
2018-07-03T10:45:26.824Z,28.37
2018-07-03T10:46:26.779Z,28.33
2018-07-03T10:47:26.732Z,28.30
2018-07-03T10:48:26.687Z,28.22
2018-07-03T10:49:26.649Z,28.22
2018-07-03T10:50:26.601Z,28.21
2018-07-03T10:51:26.558Z,28.18
2018-07-03T10:52:26.517Z,28.19
2018-07-03T10:53:26.474Z,28.17
2018-07-03T10:54:26.433Z,28.18
2018-07-03T10:55:26.392Z,28.25
2018-07-03T10:56:26.351Z,28.19
2018-07-03T10:57:26.309Z,28.19
2018-07-03T10:58:26.268Z,28.18
2018-07-03T10:59:26.231Z,28.21
2018-07-03T11:00:26.188Z,28.21
2018-07-03T11:01:26.147Z,28.19
2018-07-03T11:02:26.107Z,28.15
2018-07-03T11:03:26.067Z,28.19
2018-07-03T11:04:26.028Z,28.17
2018-07-03T11:05:25.987Z,28.21
2018-07-03T11:06:25.947Z,28.27
2018-07-03T11:07:25.908Z,28.34
2018-07-03T11:08:25.869Z,28.27
2018-07-03T11:09:25.828Z,28.27
2018-07-03T11:10:25.788Z,28.25
2018-07-03T11:11:25.749Z,28.37
2018-07-03T11:12:25.713Z,28.40
2018-07-03T11:13:25.670Z,28.36
2018-07-03T11:14:25.630Z,28.34
2018-07-03T11:15:25.600Z,28.39
2018-07-03T11:16:25.552Z,28.31
2018-07-03T11:17:25.512Z,28.37
2018-07-03T11:18:25.473Z,28.41
2018-07-03T11:19:25.434Z,28.39
2018-07-03T11:20:25.398Z,28.41
2018-07-03T11:21:25.354Z,28.39
2018-07-03T11:22:25.321Z,28.37
2018-07-03T11:23:25.277Z,28.39
2018-07-03T11:24:25.237Z,28.37
2018-07-03T11:25:25.196Z,28.49
2018-07-03T11:26:25.159Z,28.61
2018-07-03T11:27:25.123Z,28.76
2018-07-03T11:28:25.080Z,28.83
2018-07-03T11:29:25.041Z,28.92
2018-07-03T11:30:25.001Z,28.90
2018-07-03T11:31:24.963Z,28.90
2018-07-03T11:32:24.923Z,28.96
2018-07-03T11:33:24.884Z,29.02
2018-07-03T11:34:24.845Z,28.92
2018-07-03T11:35:24.805Z,28.92
2018-07-03T11:36:24.768Z,28.89
2018-07-03T11:37:24.727Z,28.90
2018-07-03T11:38:24.690Z,29.02
2018-07-03T11:39:24.649Z,28.96
2018-07-03T11:40:24.610Z,28.89
2018-07-03T11:41:24.620Z,28.88
2018-07-03T11:42:24.531Z,28.88
2018-07-03T11:43:24.492Z,28.81
2018-07-03T11:44:24.453Z,28.90
2018-07-03T11:45:24.415Z,28.89
2018-07-03T11:46:24.374Z,28.86
2018-07-03T11:47:24.336Z,28.89
2018-07-03T11:48:24.297Z,28.96
2018-07-03T11:49:24.307Z,28.98
2018-07-03T11:50:24.217Z,28.95
2018-07-03T11:51:24.179Z,28.95
2018-07-03T11:52:24.140Z,28.92
2018-07-03T11:53:24.099Z,28.90
2018-07-03T11:54:24.061Z,28.96
2018-07-03T11:55:24.023Z,28.95
2018-07-03T11:56:23.984Z,28.93
2018-07-03T11:57:23.943Z,29.04
2018-07-03T11:58:23.904Z,29.00
2018-07-03T11:59:23.865Z,29.00
2018-07-03T12:00:23.826Z,28.86
2018-07-03T12:01:23.806Z,28.96
2018-07-03T12:02:23.747Z,28.90
2018-07-03T12:03:23.708Z,28.96
2018-07-03T12:04:23.671Z,29.00
2018-07-03T12:05:23.629Z,28.98
2018-07-03T12:06:23.594Z,28.95
2018-07-03T12:07:23.552Z,28.89
2018-07-03T12:08:23.512Z,29.00
2018-07-03T12:09:23.472Z,28.93
2018-07-03T12:10:23.433Z,28.95
2018-07-03T12:11:23.394Z,29.00
2018-07-03T12:12:23.354Z,28.95
2018-07-03T12:13:23.315Z,28.96
2018-07-03T12:14:23.275Z,28.95
2018-07-03T12:15:23.237Z,28.96
2018-07-03T12:16:23.197Z,29.00
2018-07-03T12:17:23.157Z,28.96
2018-07-03T12:18:23.118Z,28.89
2018-07-03T12:19:23.079Z,28.96
2018-07-03T12:20:23.039Z,28.92
2018-07-03T12:21:23.001Z,29.02
2018-07-03T12:22:22.960Z,28.93
2018-07-03T12:23:22.920Z,29.00
2018-07-03T12:24:22.883Z,28.92
2018-07-03T12:25:22.842Z,28.95
2018-07-03T12:26:22.802Z,28.98
2018-07-03T12:27:22.763Z,29.00
2018-07-03T12:29:22.684Z,29.00
2018-07-03T12:30:22.644Z,28.92
2018-07-03T12:31:22.604Z,28.92
2018-07-03T12:32:22.566Z,28.90
2018-07-03T12:33:22.525Z,28.93
2018-07-03T12:34:22.486Z,28.90
2018-07-03T12:35:22.447Z,28.96
2018-07-03T12:36:22.408Z,28.98
2018-07-03T12:37:22.368Z,28.98
2018-07-03T12:38:22.327Z,28.90
2018-07-03T12:39:22.289Z,28.90
2018-07-03T12:40:22.249Z,28.93
2018-07-03T12:41:22.209Z,28.92
2018-07-03T12:42:22.170Z,28.98
2018-07-03T12:43:22.131Z,28.95
2018-07-03T12:44:22.091Z,28.93
2018-07-03T12:45:22.051Z,28.95
2018-07-03T12:46:22.012Z,29.04
2018-07-03T12:47:21.973Z,28.93
2018-07-03T12:48:21.933Z,28.90
2018-07-03T12:49:21.893Z,29.00
2018-07-03T12:50:21.853Z,28.90
2018-07-03T12:51:21.814Z,28.96
2018-07-03T12:52:21.775Z,28.93
2018-07-03T12:53:21.738Z,28.96
2018-07-03T12:54:21.695Z,28.96
2018-07-03T12:55:21.670Z,29.08
2018-07-03T12:56:21.616Z,29.08
2018-07-03T12:57:21.594Z,29.09
2018-07-03T12:58:21.538Z,29.05
2018-07-03T12:59:21.496Z,29.12
2018-07-03T13:00:21.459Z,29.09
2018-07-03T13:01:21.417Z,29.05
2018-07-03T13:02:21.429Z,28.96
2018-07-03T13:03:21.339Z,29.08
2018-07-03T13:04:21.299Z,28.95
2018-07-03T13:05:21.258Z,29.00
2018-07-03T13:06:21.219Z,28.93
2018-07-03T13:07:21.179Z,28.95
2018-07-03T13:08:21.140Z,28.92
2018-07-03T13:09:21.100Z,28.95
2018-07-03T13:10:21.059Z,28.95
2018-07-03T13:11:21.021Z,28.98
2018-07-03T13:12:20.981Z,28.92
2018-07-03T13:13:20.940Z,28.93
2018-07-03T13:14:20.901Z,28.85
2018-07-03T13:15:20.861Z,28.86
2018-07-03T13:16:20.823Z,28.88
2018-07-03T13:17:20.782Z,28.76
2018-07-03T13:18:20.742Z,28.88
2018-07-03T13:19:20.702Z,28.88
2018-07-03T13:20:20.663Z,28.77
2018-07-03T13:21:20.637Z,28.92
2018-07-03T13:22:20.588Z,28.98
2018-07-03T13:23:20.543Z,28.77
2018-07-03T13:24:20.503Z,28.90
2018-07-03T13:25:20.463Z,28.88
2018-07-03T13:26:20.425Z,28.76
2018-07-03T13:27:20.384Z,28.90
2018-07-03T13:28:20.345Z,28.98
2018-07-03T13:29:20.304Z,28.92
2018-07-03T13:30:20.266Z,28.96
2018-07-03T13:31:20.225Z,28.95
2018-07-03T13:32:20.187Z,29.00
2018-07-03T13:33:20.145Z,28.96